createdAt,value
2022-08-28T00:00:02.140Z,984.2
2022-08-28T00:02:03.929Z,984.3
2022-08-28T00:04:05.096Z,984.2
2022-08-28T00:06:06.580Z,984.2
2022-08-28T00:08:07.454Z,984.3
2022-08-28T00:10:09.200Z,984.3
2022-08-28T00:12:10.712Z,984.2
2022-08-28T00:14:11.955Z,984.3
2022-08-28T00:16:13.789Z,984.3
2022-08-28T00:18:14.690Z,984.3
2022-08-28T00:20:16.024Z,984.3
2022-08-28T00:22:16.914Z,984.3
2022-08-28T00:24:18.503Z,984.3
2022-08-28T00:26:20.235Z,984.2
2022-08-28T00:28:24.041Z,984.3
2022-08-28T00:30:22.352Z,984.2
2022-08-28T00:32:24.131Z,984.3
2022-08-28T00:34:29.681Z,984.3
2022-08-28T00:36:26.312Z,984.2
2022-08-28T00:38:27.702Z,984.3
2022-08-28T00:40:30.716Z,984.2
2022-08-28T00:42:30.622Z,984.2
2022-08-28T00:44:32.357Z,984.1
2022-08-28T00:46:34.238Z,984.2
2022-08-28T00:48:35.615Z,984.1
2022-08-28T00:50:36.607Z,984.2
2022-08-28T00:52:37.911Z,984.2
2022-08-28T00:54:39.207Z,984.2
2022-08-28T00:56:41.022Z,984.2
2022-08-28T00:58:41.928Z,984.2
2022-08-28T01:00:43.029Z,984.3
2022-08-28T01:02:44.178Z,984.2
2022-08-28T01:04:54.865Z,984.2
2022-08-28T01:06:46.921Z,984.2
2022-08-28T01:08:50.470Z,984.2
2022-08-28T01:10:49.139Z,984.2
2022-08-28T01:12:50.918Z,984.2
2022-08-28T01:14:52.432Z,984.2
2022-08-28T01:16:53.855Z,984.3
2022-08-28T01:18:54.918Z,984.3
2022-08-28T01:20:56.492Z,984.3
2022-08-28T01:22:57.842Z,984.2
2022-08-28T01:24:59.152Z,984.3
2022-08-28T01:27:00.128Z,984.3
2022-08-28T01:29:01.699Z,984.3
2022-08-28T01:31:02.597Z,984.3
2022-08-28T01:33:03.832Z,984.3
2022-08-28T01:35:05.638Z,984.3
2022-08-28T01:37:06.984Z,984.3
2022-08-28T01:37:50.763Z,984.3
2022-08-28T01:39:52.098Z,984.3
2022-08-28T01:41:53.082Z,984.3
2022-08-28T01:43:54.862Z,984.3
2022-08-28T01:46:05.375Z,984.2
2022-08-28T01:47:57.538Z,984.2
2022-08-28T01:49:58.533Z,984.2
2022-08-28T01:54:02.000Z,984.2
2022-08-28T01:56:04.468Z,984.2
2022-08-28T01:58:04.663Z,984.2
2022-08-28T02:00:06.162Z,984.3
2022-08-28T02:02:07.743Z,984.3
2022-08-28T02:04:09.073Z,984.3
2022-08-28T02:08:12.136Z,984.4
2022-08-28T02:12:14.839Z,984.3
2022-08-28T02:14:15.993Z,984.4
2022-08-28T02:16:25.295Z,984.3
2022-08-28T02:18:18.347Z,984.3
2022-08-28T02:20:19.390Z,984.3
2022-08-28T02:24:22.304Z,984.4
2022-08-28T02:26:24.181Z,984.4
2022-08-28T02:28:25.166Z,984.4
2022-08-28T02:30:26.439Z,984.3
2022-08-28T02:32:27.794Z,984.4
2022-08-28T02:34:29.289Z,984.3
2022-08-28T02:36:30.798Z,984.4
2022-08-28T02:38:32.503Z,984.4
2022-08-28T02:40:34.166Z,984.4
2022-08-28T02:42:35.194Z,984.4
2022-08-28T02:44:36.373Z,984.4
2022-08-28T02:46:38.282Z,984.4
2022-08-28T02:48:39.888Z,984.3
2022-08-28T02:50:41.050Z,984.4
2022-08-28T02:52:42.398Z,984.3
2022-08-28T02:54:43.933Z,984.3
2022-08-28T02:56:45.477Z,984.3
2022-08-28T02:58:46.402Z,984.3
2022-08-28T03:00:47.380Z,984.2
2022-08-28T03:02:48.370Z,984.2
2022-08-28T03:04:49.764Z,984.3
2022-08-28T03:06:51.474Z,984.2
2022-08-28T03:08:52.648Z,984.3
2022-08-28T03:10:54.267Z,984.3
2022-08-28T03:12:56.110Z,984.3
2022-08-28T03:14:57.388Z,984.2
2022-08-28T03:16:58.501Z,984.3
2022-08-28T03:18:59.902Z,984.3
2022-08-28T03:21:01.470Z,984.3
2022-08-28T03:23:03.250Z,984.3
2022-08-28T03:25:04.945Z,984.3
2022-08-28T03:27:06.051Z,984.3
2022-08-28T03:29:07.364Z,984.3
2022-08-28T03:31:09.230Z,984.3
2022-08-28T03:33:10.609Z,984.3
2022-08-28T03:37:13.422Z,984.2
2022-08-28T03:39:14.734Z,984.3
2022-08-28T03:41:15.787Z,984.3
2022-08-28T03:43:17.297Z,984.3
2022-08-28T03:47:19.755Z,984.3
2022-08-28T03:49:21.075Z,984.3
2022-08-28T03:51:23.404Z,984.3
2022-08-28T03:53:24.500Z,984.3
2022-08-28T03:57:28.087Z,984.3
2022-08-28T03:59:29.820Z,984.3
2022-08-28T04:01:31.209Z,984.3
2022-08-28T04:03:32.215Z,984.4
2022-08-28T04:05:33.078Z,984.4
2022-08-28T04:07:34.626Z,984.4
2022-08-28T04:09:36.355Z,984.5
2022-08-28T04:11:37.929Z,984.4
2022-08-28T04:13:38.916Z,984.5
2022-08-28T04:15:40.633Z,984.4
2022-08-28T04:17:42.191Z,984.5
2022-08-28T04:19:43.604Z,984.5
2022-08-28T04:21:44.869Z,984.4
2022-08-28T04:23:46.659Z,984.6
2022-08-28T04:25:48.153Z,984.4
2022-08-28T04:27:49.300Z,984.6
2022-08-28T04:29:51.065Z,984.5
2022-08-28T04:31:52.944Z,984.6
2022-08-28T04:33:54.464Z,984.6
2022-08-28T04:35:56.147Z,984.6
2022-08-28T04:37:58.929Z,984.6
2022-08-28T04:39:58.734Z,984.6
2022-08-28T04:42:00.282Z,984.5
2022-08-28T04:44:01.526Z,984.6
2022-08-28T04:48:05.420Z,984.7
2022-08-28T04:50:05.747Z,984.6
2022-08-28T04:52:07.269Z,984.6
2022-08-28T04:54:08.292Z,984.7
2022-08-28T04:56:09.297Z,984.7
2022-08-28T04:58:10.865Z,984.6
2022-08-28T05:00:12.322Z,984.7
2022-08-28T05:02:14.145Z,984.7
2022-08-28T05:04:15.310Z,984.7
2022-08-28T05:06:16.443Z,984.7
2022-08-28T05:08:17.702Z,984.7
2022-08-28T05:10:19.260Z,984.8
2022-08-28T05:12:20.897Z,984.7
2022-08-28T05:14:22.720Z,984.7
2022-08-28T05:16:23.976Z,984.7
2022-08-28T05:18:25.529Z,984.7
2022-08-28T05:20:26.564Z,984.7
2022-08-28T05:22:27.956Z,984.8
2022-08-28T05:24:29.750Z,984.8
2022-08-28T05:28:32.326Z,984.8
2022-08-28T05:30:34.133Z,984.9
2022-08-28T05:34:36.756Z,985
2022-08-28T05:36:38.243Z,985
2022-08-28T05:38:39.547Z,984.9
2022-08-28T05:40:41.200Z,984.9
2022-08-28T05:42:42.149Z,985
2022-08-28T05:44:43.209Z,984.9
2022-08-28T05:46:44.707Z,985
2022-08-28T05:48:45.768Z,984.9
2022-08-28T05:50:48.237Z,984.9
2022-08-28T05:52:49.202Z,985
2022-08-28T05:54:50.718Z,984.9
2022-08-28T05:56:52.295Z,985
2022-08-28T05:58:53.201Z,984.9
2022-08-28T06:00:54.216Z,985
2022-08-28T06:02:55.244Z,984.9
2022-08-28T06:04:56.898Z,985
2022-08-28T06:06:58.226Z,984.9
2022-08-28T06:09:00.030Z,985
2022-08-28T06:11:01.873Z,985
2022-08-28T06:13:02.804Z,984.9
2022-08-28T06:15:04.616Z,985
2022-08-28T06:17:06.338Z,984.9
2022-08-28T06:19:07.504Z,985
2022-08-28T06:21:08.545Z,985
2022-08-28T06:23:09.635Z,985
2022-08-28T06:25:10.638Z,985
2022-08-28T06:27:11.809Z,985.1
2022-08-28T06:31:24.172Z,985.1
2022-08-28T06:35:16.916Z,985.1
2022-08-28T06:37:18.250Z,985.1
2022-08-28T06:39:20.063Z,985.1
2022-08-28T06:41:21.103Z,985.1
2022-08-28T06:43:22.140Z,985
2022-08-28T06:45:23.036Z,985.1
2022-08-28T06:47:24.409Z,985.1
2022-08-28T06:49:25.732Z,985.1
2022-08-28T06:51:27.222Z,985.1
2022-08-28T06:53:28.827Z,985.1
2022-08-28T06:55:30.565Z,985.2
2022-08-28T06:57:32.285Z,985.1
2022-08-28T06:59:33.570Z,985.2
2022-08-28T07:01:34.849Z,985.1
2022-08-28T07:03:36.093Z,985.1
2022-08-28T07:05:37.121Z,985.1
2022-08-28T07:07:38.857Z,985.1
2022-08-28T07:09:40.593Z,985.2
2022-08-28T07:11:42.324Z,985.1
2022-08-28T07:13:44.009Z,985.3
2022-08-28T07:15:45.147Z,985.3
2022-08-28T07:17:46.470Z,985.2
2022-08-28T07:19:47.789Z,985.3
2022-08-28T07:21:49.400Z,985.3
2022-08-28T07:23:51.132Z,985.4
2022-08-28T07:25:52.763Z,985.4
2022-08-28T07:27:53.815Z,985.3
2022-08-28T07:29:54.703Z,985.4
2022-08-28T07:31:56.463Z,985.3
2022-08-28T07:33:58.147Z,985.3
2022-08-28T07:35:59.235Z,985.3
2022-08-28T07:38:00.097Z,985.4
2022-08-28T07:40:01.460Z,985.3
2022-08-28T07:42:02.647Z,985.4
2022-08-28T07:44:04.402Z,985.4
2022-08-28T07:46:05.317Z,985.4
2022-08-28T07:48:10.774Z,985.3
2022-08-28T07:50:08.784Z,985.5
2022-08-28T07:52:10.071Z,985.4
2022-08-28T07:54:14.789Z,985.5
2022-08-28T07:56:12.040Z,985.4
2022-08-28T07:58:13.328Z,985.5
2022-08-28T08:00:14.783Z,985.5
2022-08-28T08:02:16.327Z,985.5
2022-08-28T08:04:17.301Z,985.4
2022-08-28T08:06:18.626Z,985.6
2022-08-28T08:08:20.396Z,985.6
2022-08-28T08:10:21.557Z,985.5
2022-08-28T08:12:22.648Z,985.5
2022-08-28T08:14:23.512Z,985.5
2022-08-28T08:16:25.082Z,985.4
2022-08-28T08:18:26.797Z,985.6
2022-08-28T08:20:28.118Z,985.6
2022-08-28T08:24:30.886Z,985.6
2022-08-28T08:25:14.631Z,985.7
2022-08-28T08:27:16.393Z,985.7
2022-08-28T08:29:17.743Z,985.7
2022-08-28T08:31:18.914Z,985.6
2022-08-28T08:33:20.113Z,985.6
2022-08-28T08:35:21.640Z,985.6
2022-08-28T08:37:22.591Z,985.6
2022-08-28T08:39:23.923Z,985.6
2022-08-28T08:41:25.026Z,985.6
2022-08-28T08:45:27.705Z,985.7
2022-08-28T08:47:28.582Z,985.7
2022-08-28T08:49:29.869Z,985.8
2022-08-28T08:51:30.808Z,985.8
2022-08-28T08:53:32.561Z,985.8
2022-08-28T08:55:33.531Z,985.9
2022-08-28T08:57:34.425Z,985.9
2022-08-28T08:59:35.290Z,985.8
2022-08-28T09:01:36.164Z,985.9
2022-08-28T09:03:36.959Z,985.9
2022-08-28T09:05:38.301Z,985.9
2022-08-28T09:07:39.533Z,985.9
2022-08-28T09:09:40.869Z,986
2022-08-28T09:11:42.103Z,986
2022-08-28T09:13:43.577Z,985.9
2022-08-28T09:15:47.489Z,985.9
2022-08-28T09:17:46.653Z,985.9
2022-08-28T09:19:47.957Z,985.9
2022-08-28T09:21:49.463Z,985.9
2022-08-28T09:23:50.723Z,985.9
2022-08-28T09:25:52.335Z,985.9
2022-08-28T09:27:53.794Z,985.9
2022-08-28T09:29:54.821Z,985.9
2022-08-28T09:31:55.925Z,985.9
2022-08-28T09:33:56.805Z,985.9
2022-08-28T09:35:58.214Z,986
2022-08-28T09:37:59.191Z,985.9
2022-08-28T09:40:00.543Z,985.9
2022-08-28T09:42:02.061Z,986
2022-08-28T09:44:02.943Z,985.9
2022-08-28T09:46:03.977Z,985.8
2022-08-28T09:48:05.230Z,985.9
2022-08-28T09:50:06.684Z,985.9
2022-08-28T09:52:07.817Z,985.9
2022-08-28T09:54:09.458Z,985.9
2022-08-28T09:56:10.386Z,986
2022-08-28T09:58:11.226Z,986
2022-08-28T10:00:12.314Z,986
2022-08-28T10:02:13.360Z,986
2022-08-28T10:04:14.621Z,986
2022-08-28T10:06:16.031Z,985.9
2022-08-28T10:08:17.442Z,986
2022-08-28T10:10:18.299Z,986
2022-08-28T10:12:19.893Z,986
2022-08-28T10:14:20.785Z,985.9
2022-08-28T10:16:21.806Z,985.9
2022-08-28T10:18:23.037Z,986
2022-08-28T10:20:24.670Z,986
2022-08-28T10:22:25.855Z,986
2022-08-28T10:24:27.642Z,985.9
2022-08-28T10:26:28.699Z,985.9
2022-08-28T10:28:30.019Z,985.9
2022-08-28T10:30:31.530Z,985.9
2022-08-28T10:32:32.330Z,985.9
2022-08-28T10:34:33.971Z,986
2022-08-28T10:36:35.694Z,985.9
2022-08-28T10:38:36.976Z,986
2022-08-28T10:40:37.892Z,986
2022-08-28T10:42:38.969Z,986
2022-08-28T10:44:40.849Z,986
2022-08-28T10:46:42.531Z,986
2022-08-28T10:48:43.808Z,986.1
2022-08-28T10:50:45.485Z,985.9
2022-08-28T10:52:46.498Z,985.9
2022-08-28T10:54:47.930Z,985.9
2022-08-28T10:56:52.268Z,985.9
2022-08-28T10:58:50.646Z,985.9
2022-08-28T11:00:52.137Z,986
2022-08-28T11:02:53.489Z,985.9
2022-08-28T11:04:58.294Z,986
2022-08-28T11:06:55.676Z,986
2022-08-28T11:08:56.912Z,986
2022-08-28T11:10:58.142Z,985.9
2022-08-28T11:12:59.035Z,985.9
2022-08-28T11:15:00.439Z,986
2022-08-28T11:17:02.130Z,986
2022-08-28T11:19:03.694Z,986
2022-08-28T11:21:04.963Z,986
2022-08-28T11:23:06.248Z,986.1
2022-08-28T11:25:09.553Z,985.9
2022-08-28T11:27:08.717Z,986
2022-08-28T11:29:09.702Z,986.1
2022-08-28T11:31:11.147Z,986
2022-08-28T11:33:12.269Z,986
2022-08-28T11:35:13.936Z,986.1
2022-08-28T11:37:15.503Z,986
2022-08-28T11:39:16.821Z,986
2022-08-28T11:41:18.209Z,986
2022-08-28T11:43:19.178Z,986
2022-08-28T11:45:20.069Z,986
2022-08-28T11:47:21.625Z,986
2022-08-28T11:49:22.670Z,986
2022-08-28T11:51:24.068Z,986
2022-08-28T11:53:25.709Z,986.1
2022-08-28T11:57:28.424Z,986
2022-08-28T11:59:31.179Z,985.9
2022-08-28T12:01:30.630Z,985.9
2022-08-28T12:03:31.655Z,985.9
2022-08-28T12:05:33.360Z,986
2022-08-28T12:07:34.953Z,986
2022-08-28T12:09:36.117Z,986
2022-08-28T12:13:37.911Z,985.9
2022-08-28T12:15:39.471Z,985.9
2022-08-28T12:17:40.252Z,985.8
2022-08-28T12:19:42.995Z,985.8
2022-08-28T12:21:42.975Z,985.8
2022-08-28T12:23:43.887Z,985.8
2022-08-28T12:25:46.180Z,985.8
2022-08-28T12:27:45.839Z,985.8
2022-08-28T12:29:47.087Z,985.8
2022-08-28T12:31:48.140Z,985.8
2022-08-28T12:33:49.271Z,985.8
2022-08-28T12:35:50.695Z,985.8
2022-08-28T12:39:52.876Z,985.8
2022-08-28T12:41:53.727Z,985.9
2022-08-28T12:43:55.332Z,985.7
2022-08-28T12:45:56.148Z,985.8
2022-08-28T12:49:58.221Z,985.7
2022-08-28T12:51:59.067Z,985.7
2022-08-28T12:56:01.728Z,985.8
2022-08-28T12:58:03.226Z,985.7
2022-08-28T13:00:04.880Z,985.8
2022-08-28T13:02:05.903Z,985.7
2022-08-28T13:04:06.756Z,985.7
2022-08-28T13:06:08.037Z,985.6
2022-08-28T13:08:08.937Z,985.6
2022-08-28T13:12:11.711Z,985.6
2022-08-28T13:14:13.361Z,985.6
2022-08-28T13:16:14.637Z,985.5
2022-08-28T13:18:15.843Z,985.6
2022-08-28T13:20:16.980Z,985.6
2022-08-28T13:22:18.659Z,985.6
2022-08-28T13:24:19.952Z,985.5
2022-08-28T13:26:21.005Z,985.5
2022-08-28T13:28:21.873Z,985.4
2022-08-28T13:30:23.331Z,985.4
2022-08-28T13:32:24.405Z,985.4
2022-08-28T13:34:25.679Z,985.5
2022-08-28T13:36:27.294Z,985.4
2022-08-28T13:38:28.322Z,985.4
2022-08-28T13:40:53.767Z,985.4
2022-08-28T13:42:30.659Z,985.4
2022-08-28T13:44:31.984Z,985.4
2022-08-28T13:46:33.044Z,985.4
2022-08-28T13:48:34.061Z,985.3
2022-08-28T13:50:34.862Z,985.4
2022-08-28T13:52:36.398Z,985.4
2022-08-28T13:54:37.551Z,985.4
2022-08-28T13:56:39.115Z,985.4
2022-08-28T13:58:40.388Z,985.4
2022-08-28T14:00:41.380Z,985.4
2022-08-28T14:02:42.403Z,985.4
2022-08-28T14:04:43.571Z,985.2
2022-08-28T14:06:44.994Z,985.3
2022-08-28T14:08:46.709Z,985.4
2022-08-28T14:10:47.656Z,985.4
2022-08-28T14:12:48.629Z,985.4
2022-08-28T14:14:50.041Z,985.4
2022-08-28T14:16:51.376Z,985.4
2022-08-28T14:18:52.114Z,985.4
2022-08-28T14:20:52.962Z,985.4
2022-08-28T14:22:53.981Z,985.4
2022-08-28T14:25:04.711Z,985.4
2022-08-28T14:26:56.539Z,985.3
2022-08-28T14:28:57.691Z,985.4
2022-08-28T14:30:59.675Z,985.4
2022-08-28T14:33:01.210Z,985.4
2022-08-28T14:35:02.622Z,985.3
2022-08-28T14:37:03.517Z,985.4
2022-08-28T14:39:06.251Z,985.4
2022-08-28T14:41:06.594Z,985.4
2022-08-28T14:43:08.151Z,985.4
2022-08-28T14:45:09.443Z,985.4
2022-08-28T14:47:11.110Z,985.3
2022-08-28T14:49:12.673Z,985.3
2022-08-28T14:51:13.479Z,985.3
2022-08-28T14:55:15.665Z,985.3
2022-08-28T14:57:16.938Z,985.2
2022-08-28T14:59:23.742Z,985.1
2022-08-28T15:01:19.603Z,985.2
2022-08-28T15:03:21.360Z,985.2
2022-08-28T15:05:22.575Z,985.1
2022-08-28T15:07:23.458Z,985.1
2022-08-28T15:09:24.985Z,985.1
2022-08-28T15:10:08.649Z,985.1
2022-08-28T15:14:11.677Z,985.1
2022-08-28T15:16:15.508Z,985
2022-08-28T15:18:14.197Z,985.1
2022-08-28T15:20:15.497Z,985
2022-08-28T15:22:18.058Z,985.1
2022-08-28T15:24:18.159Z,985.1
2022-08-28T15:26:19.413Z,985.1
2022-08-28T15:28:20.352Z,985.1
2022-08-28T15:30:21.731Z,985.1
2022-08-28T15:32:23.241Z,985.1
2022-08-28T15:34:24.630Z,985.1
2022-08-28T15:36:25.663Z,985
2022-08-28T15:38:26.627Z,985
2022-08-28T15:40:28.276Z,985
2022-08-28T15:42:30.021Z,985
2022-08-28T15:44:30.732Z,984.9
2022-08-28T15:46:31.592Z,984.9
2022-08-28T15:48:32.883Z,984.9
2022-08-28T15:50:33.787Z,984.9
2022-08-28T15:52:34.547Z,984.9
2022-08-28T15:54:36.185Z,984.9
2022-08-28T15:56:37.217Z,984.9
2022-08-28T15:58:38.101Z,985
2022-08-28T16:00:38.887Z,984.9
2022-08-28T16:02:40.654Z,984.9
2022-08-28T16:04:41.860Z,985
2022-08-28T16:06:42.795Z,984.9
2022-08-28T16:08:43.924Z,985
2022-08-28T16:10:44.728Z,985
2022-08-28T16:12:47.935Z,985
2022-08-28T16:14:47.568Z,985
2022-08-28T16:16:49.127Z,985
2022-08-28T16:18:50.240Z,985
2022-08-28T16:20:51.548Z,984.9
2022-08-28T16:22:53.098Z,985.1
2022-08-28T16:24:54.860Z,985
2022-08-28T16:28:57.327Z,984.9
2022-08-28T16:30:58.250Z,984.9
2022-08-28T16:32:59.492Z,984.9
2022-08-28T16:35:00.360Z,985
2022-08-28T16:37:02.055Z,985
2022-08-28T16:39:03.907Z,985
2022-08-28T16:41:04.107Z,985
2022-08-28T16:43:05.698Z,985
2022-08-28T16:45:07.491Z,985
2022-08-28T16:47:09.246Z,985
2022-08-28T16:49:10.354Z,985
2022-08-28T16:51:12.153Z,985.1
2022-08-28T16:53:13.469Z,985
2022-08-28T16:55:14.687Z,985
2022-08-28T16:57:16.478Z,985.1
2022-08-28T16:59:18.247Z,985
2022-08-28T17:01:19.868Z,985
2022-08-28T17:03:24.379Z,985
2022-08-28T17:05:22.685Z,985
2022-08-28T17:07:24.064Z,985
2022-08-28T17:09:25.303Z,985.1
2022-08-28T17:11:26.150Z,985.1
2022-08-28T17:13:27.322Z,985
2022-08-28T17:15:29.001Z,985
2022-08-28T17:17:30.016Z,985.1
2022-08-28T17:21:32.362Z,985.2
2022-08-28T17:23:33.417Z,985
2022-08-28T17:25:34.525Z,985
2022-08-28T17:27:35.507Z,985.1
2022-08-28T17:29:36.808Z,985.1
2022-08-28T17:31:37.915Z,985
2022-08-28T17:33:39.033Z,985.1
2022-08-28T17:35:41.835Z,985.1
2022-08-28T17:37:40.822Z,985.1
2022-08-28T17:39:42.385Z,985.2
2022-08-28T17:41:44.029Z,985.2
2022-08-28T17:45:46.790Z,985.2
2022-08-28T17:47:47.882Z,985.2
2022-08-28T17:49:48.981Z,985.2
2022-08-28T17:51:50.300Z,985.2
2022-08-28T17:53:51.347Z,985.2
2022-08-28T17:55:52.997Z,985.2
2022-08-28T17:57:54.211Z,985.2
2022-08-28T17:59:55.893Z,985.2
2022-08-28T18:03:57.824Z,985.3
2022-08-28T18:05:59.262Z,985.3
2022-08-28T18:08:00.727Z,985.3
2022-08-28T18:10:02.035Z,985.3
2022-08-28T18:12:03.416Z,985.3
2022-08-28T18:14:04.306Z,985.3
2022-08-28T18:16:05.270Z,985.4
2022-08-28T18:18:06.588Z,985.4
2022-08-28T18:20:07.898Z,985.4
2022-08-28T18:22:09.222Z,985.5
2022-08-28T18:24:10.427Z,985.5
2022-08-28T18:26:11.746Z,985.5
2022-08-28T18:28:12.719Z,985.6
2022-08-28T18:30:13.599Z,985.6
2022-08-28T18:32:15.363Z,985.6
2022-08-28T18:34:17.018Z,985.6
2022-08-28T18:36:17.909Z,985.7
2022-08-28T18:38:19.553Z,985.8
2022-08-28T18:40:21.281Z,985.7
2022-08-28T18:42:22.893Z,985.8
2022-08-28T18:44:24.335Z,985.8
2022-08-28T18:46:24.838Z,985.8
2022-08-28T18:48:25.644Z,985.8
2022-08-28T18:50:26.930Z,985.9
2022-08-28T18:52:27.863Z,986
2022-08-28T18:54:29.618Z,985.9
2022-08-28T18:56:32.074Z,985.9
2022-08-28T18:58:33.127Z,986
2022-08-28T19:00:34.148Z,986
2022-08-28T19:02:39.502Z,986
2022-08-28T19:04:37.085Z,986.1
2022-08-28T19:06:38.243Z,986
2022-08-28T19:08:39.675Z,986.1
2022-08-28T19:10:40.618Z,986.1
2022-08-28T19:12:41.487Z,986.1
2022-08-28T19:14:42.396Z,986.1
2022-08-28T19:16:43.929Z,986.2
2022-08-28T19:18:45.040Z,986.1
2022-08-28T19:20:46.478Z,986.2
2022-08-28T19:22:47.466Z,986.1
2022-08-28T19:24:48.690Z,986.1
2022-08-28T19:26:49.760Z,986.2
2022-08-28T19:28:50.837Z,986.2
2022-08-28T19:30:52.099Z,986.2
2022-08-28T19:32:53.406Z,986.2
2022-08-28T19:34:54.584Z,986.3
2022-08-28T19:36:56.219Z,986.4
2022-08-28T19:38:57.525Z,986.3
2022-08-28T19:40:59.039Z,986.4
2022-08-28T19:43:00.707Z,986.3
2022-08-28T19:45:02.173Z,986.3
2022-08-28T19:47:03.113Z,986.4
2022-08-28T19:49:04.446Z,986.4
2022-08-28T19:51:06.134Z,986.4
2022-08-28T19:53:07.504Z,986.3
2022-08-28T19:55:09.198Z,986.4
2022-08-28T19:57:10.425Z,986.5
2022-08-28T19:59:12.262Z,986.5
2022-08-28T20:01:14.153Z,986.5
2022-08-28T20:03:15.746Z,986.6
2022-08-28T20:05:17.329Z,986.7
2022-08-28T20:07:18.874Z,986.7
2022-08-28T20:09:20.210Z,986.7
2022-08-28T20:13:22.934Z,986.7
2022-08-28T20:17:26.057Z,986.7
2022-08-28T20:19:27.198Z,986.7
2022-08-28T20:21:28.873Z,986.7
2022-08-28T20:23:29.301Z,986.7
2022-08-28T20:25:30.443Z,986.7
2022-08-28T20:27:31.855Z,986.7
2022-08-28T20:29:33.463Z,986.7
2022-08-28T20:31:34.422Z,986.8
2022-08-28T20:33:36.200Z,986.8
2022-08-28T20:35:37.959Z,986.8
2022-08-28T20:37:44.738Z,986.9
2022-08-28T20:39:40.551Z,986.8
2022-08-28T20:41:42.182Z,986.8
2022-08-28T20:43:43.164Z,986.8
2022-08-28T20:45:44.436Z,986.9
2022-08-28T20:47:45.580Z,986.9
2022-08-28T20:49:47.006Z,986.9
2022-08-28T20:51:48.647Z,986.9
2022-08-28T20:53:49.653Z,987
2022-08-28T20:55:51.025Z,986.9
2022-08-28T20:59:53.716Z,986.9
2022-08-28T21:01:54.735Z,986.9
2022-08-28T21:03:55.584Z,986.9
2022-08-28T21:05:56.571Z,986.9
2022-08-28T21:07:57.814Z,987
2022-08-28T21:10:06.593Z,987
2022-08-28T21:12:00.771Z,987
2022-08-28T21:14:01.913Z,987.1
2022-08-28T21:16:03.754Z,987
2022-08-28T21:18:05.241Z,987.1
2022-08-28T21:20:06.888Z,987.1
2022-08-28T21:22:08.562Z,987.1
2022-08-28T21:24:09.555Z,987.1
2022-08-28T21:26:10.513Z,987.1
2022-08-28T21:28:11.838Z,987.2
2022-08-28T21:30:12.796Z,987.1
2022-08-28T21:32:14.466Z,987.1
2022-08-28T21:34:16.019Z,987.2
2022-08-28T21:36:17.734Z,987.2
2022-08-28T21:38:19.080Z,987.1
2022-08-28T21:40:20.251Z,987.2
2022-08-28T21:42:21.807Z,987.1
2022-08-28T21:44:23.010Z,987.1
2022-08-28T21:46:24.131Z,987.2
2022-08-28T21:48:25.547Z,987.2
2022-08-28T21:50:27.142Z,987.2
2022-08-28T21:52:28.064Z,987.2
2022-08-28T21:54:29.106Z,987.3
2022-08-28T21:55:12.837Z,987.3
2022-08-28T21:57:14.248Z,987.3
2022-08-28T21:59:15.809Z,987.3
2022-08-28T22:01:17.144Z,987.3
2022-08-28T22:03:18.012Z,987.3
2022-08-28T22:05:19.241Z,987.3
2022-08-28T22:07:20.709Z,987.3
2022-08-28T22:09:22.561Z,987.3
2022-08-28T22:11:24.735Z,987.3
2022-08-28T22:13:24.847Z,987.3
2022-08-28T22:15:26.413Z,987.3
2022-08-28T22:17:27.460Z,987.4
2022-08-28T22:19:29.092Z,987.3
2022-08-28T22:21:30.763Z,987.4
2022-08-28T22:25:40.646Z,987.4
2022-08-28T22:27:35.116Z,987.5
2022-08-28T22:29:36.472Z,987.4
2022-08-28T22:31:38.288Z,987.5
2022-08-28T22:33:38.817Z,987.4
2022-08-28T22:35:39.861Z,987.4
2022-08-28T22:37:41.551Z,987.4
2022-08-28T22:39:42.837Z,987.4
2022-08-28T22:41:44.334Z,987.4
2022-08-28T22:43:45.517Z,987.3
2022-08-28T22:45:46.627Z,987.3
2022-08-28T22:47:47.963Z,987.3
2022-08-28T22:49:49.818Z,987.4
2022-08-28T22:51:51.169Z,987.4
2022-08-28T22:53:52.990Z,987.4
2022-08-28T22:55:54.182Z,987.4
2022-08-28T22:57:55.770Z,987.3
2022-08-28T22:59:57.117Z,987.4
2022-08-28T23:01:58.629Z,987.4
2022-08-28T23:03:59.985Z,987.4
2022-08-28T23:06:00.885Z,987.3
2022-08-28T23:08:01.998Z,987.5
2022-08-28T23:10:03.209Z,987.5
2022-08-28T23:12:04.837Z,987.4
2022-08-28T23:14:06.441Z,987.5
2022-08-28T23:16:07.842Z,987.4
2022-08-28T23:18:09.333Z,987.4
2022-08-28T23:20:10.277Z,987.4
2022-08-28T23:24:12.402Z,987.4
2022-08-28T23:26:13.598Z,987.5
2022-08-28T23:28:14.625Z,987.5
2022-08-28T23:30:15.581Z,987.4
2022-08-28T23:32:16.819Z,987.4
2022-08-28T23:34:18.215Z,987.5
2022-08-28T23:36:19.447Z,987.5
2022-08-28T23:40:22.483Z,987.5
2022-08-28T23:42:23.643Z,987.4
2022-08-28T23:44:24.789Z,987.4
2022-08-28T23:46:26.264Z,987.5
2022-08-28T23:48:27.383Z,987.4
2022-08-28T23:50:29.233Z,987.3
2022-08-28T23:52:30.447Z,987.5
2022-08-28T23:54:32.248Z,987.4
2022-08-28T23:56:33.421Z,987.4
2022-08-28T23:58:35.198Z,987.4
